Northfield, Iowa
Current Conditions -  °F | °C
As of 2:53 AM on Sunday 21 Dec 2014 (Local Time) from KBRL Reporting Station
Overcast Overcast  
Wind Chill: 31°   Ceiling: 2700
Heat Index: 38°   Visibility: 7mi
Dew Point: 35°   Wind: 10mph
Humidity: 89%   Direction: 190°S
Pressure: 30.16"   Gusts: NA
Location:  41.0155°N, 91.1055°W
Report Text: KBRL 210853Z AUTO 19009KT 7SM OVC027 03/02 A3016 RMK AO2 SLP219 60000 T00330017 56004
Loading
Personal Weather Stations






























Interactive Weather Map New forecast layout! Learn more

10-Day Weather Forecast

Advertisements
Track Severe Weather on mobile